Country
Station

 

Weather  for  Dallas, Dallas Love Field  -  United States    United States

  
22 °C (72 °F)
    
 
 

Current METAR for Dallas, Dallas Love Field is :

KDAL 211753Z 20016G24KT 10SM BKN028 OVC050 22/16 A2986 RMK AO2 PK WND 19027/1704 SLP105 T02220161 10222 20172 58012

 

This is a report for Dallas, Dallas Love Field - United States.
 
The report was made 10 minutes ago, at 17:53 UTC .
The wind was blowing at a speed of 8.2 meters per second (18.4 miles per hour) with gusts up to 12.3 meters per second (27.6 miles per hour) from south/southwest (200°).
 
The temperature was 22 °C (72 °F), with a dew-point at 16 °C (61 °F).
The temperature felt like 24 °C (75 °F).
 
The atmospheric pressure was 1011 hPa (29.86 inHg).
The relative humidity was 68.8%.
 
There were broken clouds at a height of 853 meters (2800 feet). The sky was overcast from a height of 1524 meter (5000 feet)
 
The overall visibility was 16.1 kilometers (10.0 miles).
 

 
 
 
 

Country :   A   B   C   D   E   F   G   H   I   J   K   L   M   N   O   P   Q   R   S   T   U   V   W   Y   Z

 

Site Info  |  Disclaimer  |  Credits  |  Privacy
Contact us  |  Add to favorites
© 2013-2018 METARs - All rights reserved